Latest Coastal Weather Observations for Melbourne (Olympic Park)

IDV60701

Issued at 5:55 pm EST Saturday 20 September 2014 (issued every 10 minutes, with the page automatically refreshed every 10 minutes)

About coastal observations | Map of coastal stations | Coastal observations for VIC | Marine services | Other Formats
Station Details ID: 086338 Name: MELBOURNE (OLYMPIC PARK) Lat: -37.83 Lon: 144.98 Height: 7.53 m
Data from the previous 72 hours. | See also: Recent months at Melbourne (Olympic Park)
Date/Time
EST
Temp

°C
Wind Pressure Rain
since 9am
mm
Weather Cloud Vis
km
Sea
Height
m
Swell
Dir
 
Speed
knots
Gust
knots
hPa Trend Height
m
Period
s
Dir
20/05:30pm 13.3 S 8 13 1028.6 - 0.0 - - - - - - -
20/05:00pm 13.4 SSW 8 14 1028.4 - 0.0 - - - - - - -
20/04:30pm 13.5 S 8 13 1028.1 - 0.0 - - - - - - -
20/04:00pm 14.0 S 10 19 1027.8 - 0.0 - - - - - - -
20/03:30pm 14.6 SSW 8 16 1027.6 - 0.0 - - - - - - -
20/03:00pm 14.0 S 9 15 1027.4 - 0.0 - - - - - - -
20/02:30pm 14.6 S 8 14 1027.3 - 0.0 - - - - - - -
20/02:00pm 14.0 S 10 16 1027.3 - 0.0 - - - - - - -
20/01:30pm 13.7 S 11 17 1027.4 - 0.0 - - - - - - -
20/01:00pm 14.0 S 9 14 1027.5 - 0.0 - - - - - - -
20/12:30pm 13.9 SSW 9 14 1027.7 - 0.0 - - - - - - -
20/12:00pm 13.9 SSW 7 12 1027.8 - 0.0 - - - - - - -
20/11:30am 13.7 S 7 11 1028.0 - 0.0 - - - - - - -
20/11:00am 13.0 SSW 9 13 1028.2 - 0.0 - - - - - - -
20/10:30am 13.2 SW 7 11 1028.2 - 0.0 - - - - - - -
20/10:00am 13.3 SSW 7 13 1028.4 - 0.0 - - - - - - -
20/09:30am 12.3 SSW 6 9 1028.4 - 0.0 - - - - - - -
20/09:00am 12.6 S 6 10 1028.1 - 0.0 - - - - - - -
20/08:30am 12.2 S 5 8 1027.9 - 0.0 - - - - - - -
20/08:00am 11.9 S 6 11 1027.6 - 0.0 - - - - - - -
20/07:30am 11.3 SSW 3 6 1027.3 - 0.0 - - - - - - -
20/07:00am 10.9 SSW 4 7 1027.0 - 0.0 - - - - - - -
20/06:30am 10.9 CALM 0 0 1026.7 - 0.0 - - - - - - -
20/06:00am 10.7 SW 2 6 1026.3 - 0.0 - - - - - - -
20/05:30am 10.6 W 4 7 1025.9 - 0.0 - - - - - - -
20/05:00am 10.4 W 3 6 1025.5 - 0.0 - - - - - - -
20/04:30am 10.1 W 3 6 1025.2 - 0.0 - - - - - - -
20/04:00am 10.3 WNW 2 5 1025.2 - 0.0 - - - - - - -
20/03:30am 10.5 CALM 0 1 1025.2 - 0.0 - - - - - - -
20/03:00am 11.1 SW 1 5 1025.1 - 0.0 - - - - - - -
20/02:30am 11.0 W 5 8 1025.3 - 0.0 - - - - - - -
20/02:00am 11.1 W 3 5 1025.4 - 0.0 - - - - - - -
20/01:30am 11.1 CALM 0 3 1025.6 - 0.0 - - - - - - -
20/01:00am 11.3 SW 3 7 1025.7 - 0.0 - - - - - - -
20/12:30am 11.5 WSW 5 9 1025.5 - 0.0 - - - - - - -
20/12:00am 11.9 SSW 1 7 1025.3 - 0.0 - - - - - - -
 
Date/Time
EST
Temp

°C
Wind Pressure Rain
since 9am
mm
Weather Cloud Vis
km
Sea
Height
m
Swell
Dir
 
Speed
knots
Gust
knots
hPa Trend Height
m
Period
s
Dir
19/11:30pm 12.2 SW 4 6 1025.4 - 0.0 - - - - - - -
19/11:00pm 12.3 SSW 5 7 1025.7 - 0.0 - - - - - - -
19/10:30pm 12.4 SSW 4 9 1025.8 - 0.0 - - - - - - -
19/10:00pm 12.4 SW 3 6 1025.9 - 0.0 - - - - - - -
19/09:30pm 12.7 S 5 7 1025.9 - 0.0 - - - - - - -
19/09:00pm 12.7 S 5 8 1025.8 - 0.0 - - - - - - -
19/08:30pm 12.7 S 5 10 1025.6 - 0.0 - - - - - - -
19/08:00pm 12.8 S 6 11 1025.5 - 0.0 - - - - - - -
19/07:30pm 12.7 S 6 12 1025.2 - 0.0 - - - - - - -
19/07:00pm 12.6 SSW 5 12 1024.9 - 0.0 - - - - - - -
19/06:30pm 12.7 S 5 9 1024.8 - 0.0 - - - - - - -
19/06:00pm 12.8 S 5 12 1024.7 - 0.0 - - - - - - -
19/05:30pm 13.2 S 7 14 1024.4 - 0.0 - - - - - - -
19/05:00pm 13.3 S 7 11 1024.2 - 0.0 - - - - - - -
19/04:30pm 13.5 S 6 10 1024.1 - 0.0 - - - - - - -
19/04:00pm 14.1 S 8 14 1024.0 - 0.0 - - - - - - -
19/03:30pm 14.0 S 5 11 1023.8 - 0.0 - - - - - - -
19/03:00pm 13.6 S 6 10 1023.8 - 0.0 - - - - - - -
19/02:30pm 14.1 S 6 14 1023.8 - 0.0 - - - - - - -
19/02:00pm 13.8 S 6 13 1024.0 - 0.0 - - - - - - -
19/01:30pm 13.7 SSE 7 11 1024.1 - 0.0 - - - - - - -
19/01:00pm 13.8 S 5 9 1024.4 - 0.0 - - - - - - -
19/12:30pm 13.3 SSW 6 10 1024.7 - 0.0 - - - - - - -
19/12:00pm 13.7 SSW 7 11 1024.9 - 0.0 - - - - - - -
19/11:30am 13.8 SSW 5 10 1024.9 - 0.0 - - - - - - -
19/11:00am 13.7 SSW 6 11 1025.0 - 0.0 - - - - - - -
19/10:30am 13.2 SW 7 13 1025.2 - 0.0 - - - - - - -
19/10:00am 13.5 SSW 6 12 1025.2 - 0.0 - - - - - - -
19/09:30am 12.8 SSW 7 11 1025.3 - 0.0 - - - - - - -
19/09:00am 12.2 W 6 10 1025.3 - 0.4 - - - - - - -
19/08:30am 11.2 W 3 6 1025.3 - 0.4 - - - - - - -
19/08:00am 10.0 W 4 8 1025.3 - 0.4 - - - - - - -
19/07:30am 9.2 NNW 4 7 1025.0 - 0.4 - - - - - - -
19/07:00am 9.4 W 3 5 1024.9 - 0.4 - - - - - - -
19/06:30am 9.1 W 2 5 1024.6 - 0.4 - - - - - - -
19/06:00am 8.8 W 2 4 1024.4 - 0.4 - - - - - - -
19/05:30am 8.9 CALM 0 4 1024.2 - 0.4 - - - - - - -
19/05:00am 9.0 W 3 6 1024.1 - 0.4 - - - - - - -
19/04:30am 9.2 SSW 2 5 1024.1 - 0.4 - - - - - - -
19/04:00am 9.1 SSW 1 3 1023.9 - 0.4 - - - - - - -
19/03:30am 9.0 CALM 0 0 1023.8 - 0.4 - - - - - - -
19/03:00am 9.0 WSW 1 4 1023.9 - 0.4 - - - - - - -
19/02:30am 8.9 CALM 0 0 1024.0 - 0.4 - - - - - - -
19/02:00am 9.1 SW 2 4 1024.2 - 0.4 - - - - - - -
19/01:30am 9.2 W 2 5 1024.5 - 0.4 - - - - - - -
19/01:00am 9.2 WSW 3 8 1024.7 - 0.4 - - - - - - -
19/12:30am 9.1 SW 1 4 1024.9 - 0.4 - - - - - - -
19/12:00am 9.5 WSW 3 7 1024.9 - 0.4 - - - - - - -
 
Date/Time
EST
Temp

°C
Wind Pressure Rain
since 9am
mm
Weather Cloud Vis
km
Sea
Height
m
Swell
Dir
 
Speed
knots
Gust
knots
hPa Trend Height
m
Period
s
Dir
18/11:30pm 10.1 W 3 6 1025.1 - 0.4 - - - - - - -
18/11:00pm 10.4 W 4 7 1025.2 - 0.4 - - - - - - -
18/10:30pm 10.8 W 5 7 1025.1 - 0.4 - - - - - - -
18/10:00pm 11.6 WSW 5 11 1025.0 - 0.4 - - - - - - -
18/09:30pm 11.5 SW 5 8 1024.9 - 0.4 - - - - - - -
18/09:00pm 11.5 SSW 6 11 1024.9 - 0.4 - - - - - - -
18/08:30pm 11.9 S 7 11 1024.6 - 0.4 - - - - - - -
18/08:00pm 12.0 S 6 11 1024.7 - 0.4 - - - - - - -
18/07:30pm 12.0 S 7 14 1024.5 - 0.4 - - - - - - -
18/07:00pm 11.9 S 8 14 1024.2 - 0.4 - - - - - - -
18/06:30pm 11.9 SSW 7 12 1024.1 - 0.4 - - - - - - -
18/06:00pm 12.0 S 8 13 1023.9 - 0.4 - - - - - - -
18/05:30pm 12.2 S 7 11 1023.6 - 0.4 - - - - - - -
18/05:00pm 12.6 S 8 15 1023.3 - 0.4 - - - - - - -
18/04:30pm 12.2 S 7 12 1023.0 - 0.4 - - - - - - -
18/04:00pm 12.7 S 7 13 1023.0 - 0.4 - - - - - - -
18/03:30pm 12.4 S 10 17 1022.9 - 0.4 - - - - - - -
18/03:00pm 11.5 S 10 17 1022.9 - 0.4 - - - - - - -
18/02:30pm 13.0 SSW 8 15 1022.8 - 0.4 - - - - - - -
18/02:00pm 12.6 S 9 14 1022.8 - 0.4 - - - - - - -
18/01:30pm 11.9 SW 5 10 1022.8 - 0.2 - - - - - - -
18/01:00pm 11.4 S 5 7 1022.9 - 0.2 - - - - - - -
18/12:30pm 11.9 SSW 6 11 1023.1 - 0.2 - - - - - - -
18/12:00pm 12.0 SW 6 9 1023.1 - 0.2 - - - - - - -
18/11:30am 10.9 SSW 6 14 1023.3 - 0.2 - - - - - - -
18/11:00am 11.9 SW 6 11 1023.2 - 0.2 - - - - - - -
18/10:30am 11.2 SW 5 9 1023.3 - 0.2 - - - - - - -
18/10:00am 9.8 SSW 4 9 1023.3 - 0.2 - - - - - - -
18/09:30am 10.6 SW 7 11 1023.1 - 0.0 - - - - - - -
18/09:00am 10.3 SW 5 11 1022.9 - 0.6 - - - - - - -
18/08:30am 9.7 WSW 4 7 1022.8 - 0.6 - - - - - - -
18/08:00am 8.7 W 4 8 1022.5 - 0.6 - - - - - - -
18/07:30am 8.6 SW 4 8 1022.3 - 0.4 - - - - - - -
18/07:00am 8.5 W 4 7 1021.7 - 0.4 - - - - - - -
18/06:30am 8.3 WSW 4 8 1021.4 - 0.4 - - - - - - -
18/06:00am 8.2 WNW 7 11 1021.1 - 0.4 - - - - - - -
18/05:30am 8.0 W 5 8 1020.6 - 0.4 - - - - - - -
18/05:00am 8.1 W 4 9 1020.3 - 0.4 - - - - - - -
18/04:30am 8.4 W 6 11 1020.0 - 0.4 - - - - - - -
18/04:00am 8.3 W 5 9 1019.9 - 0.4 - - - - - - -
18/03:30am 8.1 W 5 10 1020.0 - 0.4 - - - - - - -
18/03:00am 8.2 W 5 11 1019.8 - 0.4 - - - - - - -
18/02:30am 8.4 W 7 13 1019.6 - 0.4 - - - - - - -
18/02:00am 8.6 W 6 11 1019.9 - 0.4 - - - - - - -
18/01:30am 8.5 W 6 12 1019.8 - 0.4 - - - - - - -
18/01:00am 8.3 WNW 6 12 1019.8 - 0.4 - - - - - - -
18/12:30am 8.3 W 6 9 1020.0 - 0.4 - - - - - - -
18/12:00am 8.5 WNW 5 9 1020.0 - 0.4 - - - - - - -
 
Date/Time
EST
Temp

°C
Wind Pressure Rain
since 9am
mm
Weather Cloud Vis
km
Sea
Height
m
Swell
Dir
 
Speed
knots
Gust
knots
hPa Trend Height
m
Period
s
Dir
17/11:30pm 8.5 W 7 15 1019.8 - 0.4 - - - - - - -
17/11:00pm 8.7 W 4 10 1019.7 - 0.4 - - - - - - -
17/10:30pm 8.7 WNW 5 10 1019.6 - 0.4 - - - - - - -
17/10:00pm 9.1 W 6 13 1019.7 - 0.4 - - - - - - -
17/09:30pm 9.4 W 6 12 1019.5 - 0.4 - - - - - - -
17/09:00pm 9.8 W 7 13 1019.1 - 0.4 - - - - - - -
17/08:30pm 9.8 W 6 11 1018.9 - 0.4 - - - - - - -
17/08:00pm 10.0 W 6 11 1018.8 - 0.4 - - - - - - -
17/07:30pm 10.1 W 6 14 1018.5 - 0.4 - - - - - - -
17/07:00pm 10.2 W 7 14 1018.2 - 0.4 - - - - - - -
17/06:30pm 9.7 SSW 5 11 1017.8 - 0.4 - - - - - - -
17/06:00pm 11.4 SW 5 11 1017.4 - 0.4 Recent precip. - - - - - -

Other Formats:

Comma delimited format used in spreadsheet applications
http://www.bom.gov.au/fwo/IDV60701/IDV60701.95936.axf

JavaScript Object Notation format (JSON) in row-major order
http://www.bom.gov.au/fwo/IDV60701/IDV60701.95936.json